sensor_id;sensor_type;location;lat;lon;timestamp;P1;durP1;ratioP1;P2;durP2;ratioP2
37409;SDS011;23275;48.914;12.566;2024-02-04T00:00:03;2.03;;;0.95;;
37409;SDS011;23275;48.914;12.566;2024-02-04T00:02:30;1.98;;;0.80;;
37409;SDS011;23275;48.914;12.566;2024-02-04T00:04:56;2.25;;;0.90;;
37409;SDS011;23275;48.914;12.566;2024-02-04T00:07:21;2.22;;;0.90;;
37409;SDS011;23275;48.914;12.566;2024-02-04T00:09:47;3.63;;;1.10;;
37409;SDS011;23275;48.914;12.566;2024-02-04T00:12:12;2.10;;;0.80;;
37409;SDS011;23275;48.914;12.566;2024-02-04T00:14:38;1.88;;;0.75;;
37409;SDS011;23275;48.914;12.566;2024-02-04T00:17:04;2.38;;;0.98;;
37409;SDS011;23275;48.914;12.566;2024-02-04T00:19:29;1.65;;;0.90;;
37409;SDS011;23275;48.914;12.566;2024-02-04T00:21:55;1.67;;;1.10;;
37409;SDS011;23275;48.914;12.566;2024-02-04T00:24:20;3.63;;;1.10;;
37409;SDS011;23275;48.914;12.566;2024-02-04T00:26:46;2.20;;;1.10;;
37409;SDS011;23275;48.914;12.566;2024-02-04T00:29:12;2.45;;;1.15;;
37409;SDS011;23275;48.914;12.566;2024-02-04T00:31:38;4.28;;;1.63;;
37409;SDS011;23275;48.914;12.566;2024-02-04T00:34:03;3.30;;;1.52;;
37409;SDS011;23275;48.914;12.566;2024-02-04T00:36:30;2.17;;;1.20;;
37409;SDS011;23275;48.914;12.566;2024-02-04T00:38:55;2.13;;;1.20;;
37409;SDS011;23275;48.914;12.566;2024-02-04T00:41:21;3.13;;;1.17;;
37409;SDS011;23275;48.914;12.566;2024-02-04T00:43:47;2.72;;;1.30;;
37409;SDS011;23275;48.914;12.566;2024-02-04T00:46:12;2.88;;;1.48;;
37409;SDS011;23275;48.914;12.566;2024-02-04T00:48:38;3.83;;;1.52;;
37409;SDS011;23275;48.914;12.566;2024-02-04T00:51:05;5.07;;;1.67;;
37409;SDS011;23275;48.914;12.566;2024-02-04T00:53:31;3.65;;;1.55;;
37409;SDS011;23275;48.914;12.566;2024-02-04T00:56:03;3.28;;;1.13;;
37409;SDS011;23275;48.914;12.566;2024-02-04T00:58:29;3.08;;;1.63;;
37409;SDS011;23275;48.914;12.566;2024-02-04T01:00:54;3.33;;;1.60;;
37409;SDS011;23275;48.914;12.566;2024-02-04T01:03:20;2.47;;;1.27;;
37409;SDS011;23275;48.914;12.566;2024-02-04T01:05:45;3.20;;;1.42;;
37409;SDS011;23275;48.914;12.566;2024-02-04T01:08:11;2.88;;;1.33;;
37409;SDS011;23275;48.914;12.566;2024-02-04T01:10:37;2.90;;;1.52;;
37409;SDS011;23275;48.914;12.566;2024-02-04T01:13:03;2.08;;;0.88;;
37409;SDS011;23275;48.914;12.566;2024-02-04T01:15:29;3.10;;;1.30;;
37409;SDS011;23275;48.914;12.566;2024-02-04T01:17:54;4.13;;;1.40;;
37409;SDS011;23275;48.914;12.566;2024-02-04T01:20:20;2.97;;;1.33;;
37409;SDS011;23275;48.914;12.566;2024-02-04T01:22:45;3.08;;;1.20;;
37409;SDS011;23275;48.914;12.566;2024-02-04T01:25:11;2.72;;;1.10;;
37409;SDS011;23275;48.914;12.566;2024-02-04T01:27:36;2.20;;;1.25;;
37409;SDS011;23275;48.914;12.566;2024-02-04T01:30:02;4.13;;;1.35;;
37409;SDS011;23275;48.914;12.566;2024-02-04T01:32:28;2.40;;;1.30;;
37409;SDS011;23275;48.914;12.566;2024-02-04T01:34:53;2.17;;;1.10;;
37409;SDS011;23275;48.914;12.566;2024-02-04T01:37:19;3.78;;;1.15;;
37409;SDS011;23275;48.914;12.566;2024-02-04T01:39:44;2.42;;;1.05;;
37409;SDS011;23275;48.914;12.566;2024-02-04T01:42:10;2.60;;;1.40;;
37409;SDS011;23275;48.914;12.566;2024-02-04T01:44:36;2.72;;;1.15;;
37409;SDS011;23275;48.914;12.566;2024-02-04T01:47:01;3.72;;;1.00;;
37409;SDS011;23275;48.914;12.566;2024-02-04T01:49:28;3.78;;;1.15;;
37409;SDS011;23275;48.914;12.566;2024-02-04T01:51:54;3.17;;;1.25;;
37409;SDS011;23275;48.914;12.566;2024-02-04T01:54:20;2.88;;;1.10;;
37409;SDS011;23275;48.914;12.566;2024-02-04T01:56:51;2.15;;;1.10;;
37409;SDS011;23275;48.914;12.566;2024-02-04T01:59:18;2.95;;;1.17;;
37409;SDS011;23275;48.914;12.566;2024-02-04T02:01:45;2.55;;;1.15;;
37409;SDS011;23275;48.914;12.566;2024-02-04T02:04:12;2.75;;;1.30;;
37409;SDS011;23275;48.914;12.566;2024-02-04T02:06:39;1.80;;;1.00;;
37409;SDS011;23275;48.914;12.566;2024-02-04T02:09:06;3.55;;;0.98;;
37409;SDS011;23275;48.914;12.566;2024-02-04T02:14:18;3.70;;;0.98;;
37409;SDS011;23275;48.914;12.566;2024-02-04T02:16:48;1.75;;;0.80;;
37409;SDS011;23275;48.914;12.566;2024-02-04T02:22:28;2.70;;;1.00;;
37409;SDS011;23275;48.914;12.566;2024-02-04T02:25:02;1.42;;;0.80;;
37409;SDS011;23275;48.914;12.566;2024-02-04T02:27:30;2.30;;;0.88;;
37409;SDS011;23275;48.914;12.566;2024-02-04T02:29:55;1.75;;;0.90;;
37409;SDS011;23275;48.914;12.566;2024-02-04T02:32:21;1.67;;;0.80;;
37409;SDS011;23275;48.914;12.566;2024-02-04T02:34:47;2.22;;;0.90;;
37409;SDS011;23275;48.914;12.566;2024-02-04T02:37:47;2.05;;;0.90;;
37409;SDS011;23275;48.914;12.566;2024-02-04T02:40:29;1.42;;;0.75;;
37409;SDS011;23275;48.914;12.566;2024-02-04T02:43:12;1.83;;;1.00;;
37409;SDS011;23275;48.914;12.566;2024-02-04T02:45:42;1.83;;;0.88;;
37409;SDS011;23275;48.914;12.566;2024-02-04T02:48:08;1.90;;;1.00;;
37409;SDS011;23275;48.914;12.566;2024-02-04T02:50:38;2.20;;;1.08;;
37409;SDS011;23275;48.914;12.566;2024-02-04T02:53:03;2.35;;;1.10;;
37409;SDS011;23275;48.914;12.566;2024-02-04T02:55:29;1.98;;;0.95;;
37409;SDS011;23275;48.914;12.566;2024-02-04T02:57:56;1.80;;;0.98;;
37409;SDS011;23275;48.914;12.566;2024-02-04T03:00:22;2.03;;;0.90;;
37409;SDS011;23275;48.914;12.566;2024-02-04T03:02:47;2.00;;;0.98;;
37409;SDS011;23275;48.914;12.566;2024-02-04T03:05:15;2.33;;;1.25;;
37409;SDS011;23275;48.914;12.566;2024-02-04T03:07:40;2.33;;;1.20;;
37409;SDS011;23275;48.914;12.566;2024-02-04T03:10:06;2.80;;;1.25;;
37409;SDS011;23275;48.914;12.566;2024-02-04T03:12:33;1.80;;;1.00;;
37409;SDS011;23275;48.914;12.566;2024-02-04T03:14:59;3.83;;;1.25;;
37409;SDS011;23275;48.914;12.566;2024-02-04T03:17:24;3.00;;;1.08;;
37409;SDS011;23275;48.914;12.566;2024-02-04T03:19:50;2.80;;;1.42;;
37409;SDS011;23275;48.914;12.566;2024-02-04T03:22:22;2.67;;;1.25;;
37409;SDS011;23275;48.914;12.566;2024-02-04T03:24:48;3.35;;;1.35;;
37409;SDS011;23275;48.914;12.566;2024-02-04T03:27:14;3.08;;;1.40;;
37409;SDS011;23275;48.914;12.566;2024-02-04T03:29:43;5.13;;;1.67;;
37409;SDS011;23275;48.914;12.566;2024-02-04T03:32:10;3.28;;;1.80;;
37409;SDS011;23275;48.914;12.566;2024-02-04T03:34:36;4.20;;;1.77;;
37409;SDS011;23275;48.914;12.566;2024-02-04T03:37:01;3.08;;;1.92;;
37409;SDS011;23275;48.914;12.566;2024-02-04T03:39:27;3.20;;;1.67;;
37409;SDS011;23275;48.914;12.566;2024-02-04T03:41:53;3.20;;;1.73;;
37409;SDS011;23275;48.914;12.566;2024-02-04T03:44:18;3.15;;;1.55;;
37409;SDS011;23275;48.914;12.566;2024-02-04T03:46:47;3.95;;;1.65;;
37409;SDS011;23275;48.914;12.566;2024-02-04T03:49:13;4.10;;;2.20;;
37409;SDS011;23275;48.914;12.566;2024-02-04T03:51:39;2.90;;;1.55;;
37409;SDS011;23275;48.914;12.566;2024-02-04T03:54:05;2.67;;;1.50;;
37409;SDS011;23275;48.914;12.566;2024-02-04T03:56:30;3.92;;;1.45;;
37409;SDS011;23275;48.914;12.566;2024-02-04T03:58:56;3.13;;;1.75;;
37409;SDS011;23275;48.914;12.566;2024-02-04T04:01:21;2.70;;;1.38;;
37409;SDS011;23275;48.914;12.566;2024-02-04T04:03:47;3.53;;;1.70;;
37409;SDS011;23275;48.914;12.566;2024-02-04T04:06:12;2.53;;;1.50;;
37409;SDS011;23275;48.914;12.566;2024-02-04T04:08:38;3.97;;;1.50;;
37409;SDS011;23275;48.914;12.566;2024-02-04T04:11:04;3.38;;;1.55;;
37409;SDS011;23275;48.914;12.566;2024-02-04T04:13:29;2.08;;;1.35;;
37409;SDS011;23275;48.914;12.566;2024-02-04T04:15:57;2.88;;;1.40;;
37409;SDS011;23275;48.914;12.566;2024-02-04T04:18:22;3.13;;;1.60;;
37409;SDS011;23275;48.914;12.566;2024-02-04T04:20:48;2.90;;;1.45;;
37409;SDS011;23275;48.914;12.566;2024-02-04T04:23:13;2.70;;;1.38;;
37409;SDS011;23275;48.914;12.566;2024-02-04T04:25:39;2.38;;;1.15;;
37409;SDS011;23275;48.914;12.566;2024-02-04T04:28:04;2.25;;;1.25;;
37409;SDS011;23275;48.914;12.566;2024-02-04T04:30:30;2.45;;;1.40;;
37409;SDS011;23275;48.914;12.566;2024-02-04T04:32:56;4.28;;;1.50;;
37409;SDS011;23275;48.914;12.566;2024-02-04T04:35:23;2.75;;;1.33;;
37409;SDS011;23275;48.914;12.566;2024-02-04T04:37:48;2.90;;;1.40;;
37409;SDS011;23275;48.914;12.566;2024-02-04T04:40:14;2.85;;;1.50;;
37409;SDS011;23275;48.914;12.566;2024-02-04T04:42:40;2.40;;;1.20;;
37409;SDS011;23275;48.914;12.566;2024-02-04T04:45:06;3.53;;;1.08;;
37409;SDS011;23275;48.914;12.566;2024-02-04T04:47:33;4.95;;;1.63;;
37409;SDS011;23275;48.914;12.566;2024-02-04T04:49:59;2.60;;;1.30;;
37409;SDS011;23275;48.914;12.566;2024-02-04T04:52:24;2.30;;;1.27;;
37409;SDS011;23275;48.914;12.566;2024-02-04T04:54:50;2.70;;;1.45;;
37409;SDS011;23275;48.914;12.566;2024-02-04T04:57:16;3.10;;;1.35;;
37409;SDS011;23275;48.914;12.566;2024-02-04T04:59:41;2.85;;;1.23;;
37409;SDS011;23275;48.914;12.566;2024-02-04T05:02:08;2.00;;;1.20;;
37409;SDS011;23275;48.914;12.566;2024-02-04T05:04:35;3.63;;;1.30;;
37409;SDS011;23275;48.914;12.566;2024-02-04T05:07:01;5.72;;;2.10;;
37409;SDS011;23275;48.914;12.566;2024-02-04T05:09:26;2.60;;;1.42;;
37409;SDS011;23275;48.914;12.566;2024-02-04T05:11:52;3.30;;;1.80;;
37409;SDS011;23275;48.914;12.566;2024-02-04T05:14:17;2.50;;;1.20;;
37409;SDS011;23275;48.914;12.566;2024-02-04T05:16:43;2.97;;;1.23;;
37409;SDS011;23275;48.914;12.566;2024-02-04T05:19:10;2.75;;;1.33;;
37409;SDS011;23275;48.914;12.566;2024-02-04T05:21:39;3.50;;;1.42;;
37409;SDS011;23275;48.914;12.566;2024-02-04T05:24:05;4.07;;;1.70;;
37409;SDS011;23275;48.914;12.566;2024-02-04T05:26:31;2.97;;;1.27;;
37409;SDS011;23275;48.914;12.566;2024-02-04T05:28:56;3.30;;;1.42;;
37409;SDS011;23275;48.914;12.566;2024-02-04T05:31:22;2.75;;;1.40;;
37409;SDS011;23275;48.914;12.566;2024-02-04T05:33:47;2.90;;;1.42;;
37409;SDS011;23275;48.914;12.566;2024-02-04T05:36:13;3.05;;;1.70;;
37409;SDS011;23275;48.914;12.566;2024-02-04T05:38:38;3.10;;;1.67;;
37409;SDS011;23275;48.914;12.566;2024-02-04T05:41:04;2.95;;;1.45;;
37409;SDS011;23275;48.914;12.566;2024-02-04T05:43:30;2.70;;;1.70;;
37409;SDS011;23275;48.914;12.566;2024-02-04T05:45:55;2.88;;;1.63;;
37409;SDS011;23275;48.914;12.566;2024-02-04T05:48:21;3.63;;;1.90;;
37409;SDS011;23275;48.914;12.566;2024-02-04T05:50:46;4.57;;;1.52;;
37409;SDS011;23275;48.914;12.566;2024-02-04T05:53:12;3.92;;;1.90;;
37409;SDS011;23275;48.914;12.566;2024-02-04T05:55:38;4.07;;;2.25;;
37409;SDS011;23275;48.914;12.566;2024-02-04T05:58:04;3.60;;;2.30;;
37409;SDS011;23275;48.914;12.566;2024-02-04T06:00:29;3.38;;;1.75;;
37409;SDS011;23275;48.914;12.566;2024-02-04T06:02:55;3.90;;;2.22;;
37409;SDS011;23275;48.914;12.566;2024-02-04T06:05:21;3.80;;;1.92;;
37409;SDS011;23275;48.914;12.566;2024-02-04T06:07:46;4.75;;;1.80;;
37409;SDS011;23275;48.914;12.566;2024-02-04T06:10:12;2.97;;;1.58;;
37409;SDS011;23275;48.914;12.566;2024-02-04T06:12:37;4.05;;;1.70;;
37409;SDS011;23275;48.914;12.566;2024-02-04T06:15:05;3.70;;;1.83;;
37409;SDS011;23275;48.914;12.566;2024-02-04T06:17:36;3.25;;;1.70;;
37409;SDS011;23275;48.914;12.566;2024-02-04T06:20:02;4.72;;;1.52;;
37409;SDS011;23275;48.914;12.566;2024-02-04T06:22:28;3.15;;;1.90;;
37409;SDS011;23275;48.914;12.566;2024-02-04T06:24:53;3.13;;;1.77;;
37409;SDS011;23275;48.914;12.566;2024-02-04T06:27:19;3.40;;;1.80;;
37409;SDS011;23275;48.914;12.566;2024-02-04T06:29:44;3.80;;;2.10;;
37409;SDS011;23275;48.914;12.566;2024-02-04T06:32:10;4.13;;;1.85;;
37409;SDS011;23275;48.914;12.566;2024-02-04T06:34:36;3.35;;;1.60;;
37409;SDS011;23275;48.914;12.566;2024-02-04T06:37:02;3.35;;;1.90;;
37409;SDS011;23275;48.914;12.566;2024-02-04T06:39:27;2.33;;;1.40;;
37409;SDS011;23275;48.914;12.566;2024-02-04T06:41:53;3.83;;;1.70;;
37409;SDS011;23275;48.914;12.566;2024-02-04T06:44:18;2.58;;;1.25;;
37409;SDS011;23275;48.914;12.566;2024-02-04T06:46:44;2.80;;;1.40;;
37409;SDS011;23275;48.914;12.566;2024-02-04T06:49:09;3.25;;;1.40;;
37409;SDS011;23275;48.914;12.566;2024-02-04T06:51:35;3.05;;;1.77;;
37409;SDS011;23275;48.914;12.566;2024-02-04T06:54:00;3.88;;;1.75;;
37409;SDS011;23275;48.914;12.566;2024-02-04T06:56:26;3.25;;;1.55;;
37409;SDS011;23275;48.914;12.566;2024-02-04T06:58:52;3.55;;;1.83;;
37409;SDS011;23275;48.914;12.566;2024-02-04T07:01:17;2.40;;;1.42;;
37409;SDS011;23275;48.914;12.566;2024-02-04T07:03:43;3.38;;;1.60;;
37409;SDS011;23275;48.914;12.566;2024-02-04T07:06:09;2.13;;;1.20;;
37409;SDS011;23275;48.914;12.566;2024-02-04T07:08:34;4.38;;;1.73;;
37409;SDS011;23275;48.914;12.566;2024-02-04T07:11:00;2.85;;;1.40;;
37409;SDS011;23275;48.914;12.566;2024-02-04T07:13:25;3.20;;;1.65;;
37409;SDS011;23275;48.914;12.566;2024-02-04T07:15:51;3.38;;;1.80;;
37409;SDS011;23275;48.914;12.566;2024-02-04T07:18:16;3.90;;;1.90;;
37409;SDS011;23275;48.914;12.566;2024-02-04T07:20:46;5.35;;;2.10;;
37409;SDS011;23275;48.914;12.566;2024-02-04T07:23:12;6.20;;;3.38;;
37409;SDS011;23275;48.914;12.566;2024-02-04T07:25:38;4.72;;;2.30;;
37409;SDS011;23275;48.914;12.566;2024-02-04T07:28:03;4.32;;;2.28;;
37409;SDS011;23275;48.914;12.566;2024-02-04T07:30:29;5.43;;;1.85;;
37409;SDS011;23275;48.914;12.566;2024-02-04T07:32:55;5.20;;;3.05;;
37409;SDS011;23275;48.914;12.566;2024-02-04T07:35:20;3.42;;;2.15;;
37409;SDS011;23275;48.914;12.566;2024-02-04T07:37:46;2.97;;;1.98;;
37409;SDS011;23275;48.914;12.566;2024-02-04T07:40:12;2.63;;;1.65;;
37409;SDS011;23275;48.914;12.566;2024-02-04T07:42:38;4.05;;;2.10;;
37409;SDS011;23275;48.914;12.566;2024-02-04T07:45:03;3.55;;;1.85;;
37409;SDS011;23275;48.914;12.566;2024-02-04T07:47:33;2.80;;;1.67;;
37409;SDS011;23275;48.914;12.566;2024-02-04T07:49:59;4.50;;;2.60;;
37409;SDS011;23275;48.914;12.566;2024-02-04T07:52:25;3.28;;;1.83;;
37409;SDS011;23275;48.914;12.566;2024-02-04T07:54:50;3.33;;;1.77;;
37409;SDS011;23275;48.914;12.566;2024-02-04T07:57:16;4.88;;;2.70;;
37409;SDS011;23275;48.914;12.566;2024-02-04T07:59:42;3.92;;;1.85;;
37409;SDS011;23275;48.914;12.566;2024-02-04T08:02:07;3.20;;;2.00;;
37409;SDS011;23275;48.914;12.566;2024-02-04T08:04:33;3.38;;;1.70;;
37409;SDS011;23275;48.914;12.566;2024-02-04T08:06:58;3.33;;;1.77;;
37409;SDS011;23275;48.914;12.566;2024-02-04T08:09:24;3.97;;;2.60;;
37409;SDS011;23275;48.914;12.566;2024-02-04T08:11:49;6.25;;;3.53;;
37409;SDS011;23275;48.914;12.566;2024-02-04T08:14:15;6.10;;;3.42;;
37409;SDS011;23275;48.914;12.566;2024-02-04T08:16:42;5.20;;;3.33;;
37409;SDS011;23275;48.914;12.566;2024-02-04T08:19:08;5.20;;;3.60;;
37409;SDS011;23275;48.914;12.566;2024-02-04T08:21:33;4.65;;;2.70;;
37409;SDS011;23275;48.914;12.566;2024-02-04T08:23:59;4.53;;;2.38;;
37409;SDS011;23275;48.914;12.566;2024-02-04T08:26:24;3.83;;;2.40;;
37409;SDS011;23275;48.914;12.566;2024-02-04T08:28:50;3.83;;;2.13;;
37409;SDS011;23275;48.914;12.566;2024-02-04T08:31:16;4.18;;;2.15;;
37409;SDS011;23275;48.914;12.566;2024-02-04T08:33:42;3.60;;;2.10;;
37409;SDS011;23275;48.914;12.566;2024-02-04T08:36:07;5.50;;;2.58;;
37409;SDS011;23275;48.914;12.566;2024-02-04T08:38:35;4.10;;;2.50;;
37409;SDS011;23275;48.914;12.566;2024-02-04T08:41:02;4.45;;;2.47;;
37409;SDS011;23275;48.914;12.566;2024-02-04T08:43:31;3.92;;;2.10;;
37409;SDS011;23275;48.914;12.566;2024-02-04T08:45:57;5.28;;;2.65;;
37409;SDS011;23275;48.914;12.566;2024-02-04T08:48:22;4.70;;;2.88;;
37409;SDS011;23275;48.914;12.566;2024-02-04T08:50:48;4.70;;;2.70;;
37409;SDS011;23275;48.914;12.566;2024-02-04T08:53:13;3.83;;;2.20;;
37409;SDS011;23275;48.914;12.566;2024-02-04T08:55:39;3.20;;;2.05;;
37409;SDS011;23275;48.914;12.566;2024-02-04T08:58:04;3.28;;;1.88;;
37409;SDS011;23275;48.914;12.566;2024-02-04T09:00:30;5.47;;;2.22;;
37409;SDS011;23275;48.914;12.566;2024-02-04T09:02:56;4.03;;;2.22;;
37409;SDS011;23275;48.914;12.566;2024-02-04T09:05:22;3.70;;;1.98;;
37409;SDS011;23275;48.914;12.566;2024-02-04T09:07:47;3.47;;;1.48;;
37409;SDS011;23275;48.914;12.566;2024-02-04T09:10:13;3.33;;;1.90;;
37409;SDS011;23275;48.914;12.566;2024-02-04T09:12:38;2.70;;;1.40;;
37409;SDS011;23275;48.914;12.566;2024-02-04T09:15:04;2.80;;;1.40;;
37409;SDS011;23275;48.914;12.566;2024-02-04T09:17:30;2.45;;;1.38;;
37409;SDS011;23275;48.914;12.566;2024-02-04T09:19:58;2.78;;;1.50;;
37409;SDS011;23275;48.914;12.566;2024-02-04T09:22:24;2.70;;;1.30;;
37409;SDS011;23275;48.914;12.566;2024-02-04T09:24:49;2.40;;;1.20;;
37409;SDS011;23275;48.914;12.566;2024-02-04T09:27:15;2.20;;;1.13;;
37409;SDS011;23275;48.914;12.566;2024-02-04T09:29:40;1.75;;;1.02;;
37409;SDS011;23275;48.914;12.566;2024-02-04T09:32:06;11.50;;;7.30;;
37409;SDS011;23275;48.914;12.566;2024-02-04T09:34:32;16.52;;;9.02;;
37409;SDS011;23275;48.914;12.566;2024-02-04T09:36:58;8.85;;;3.38;;
37409;SDS011;23275;48.914;12.566;2024-02-04T09:39:24;5.63;;;3.58;;
37409;SDS011;23275;48.914;12.566;2024-02-04T09:41:49;5.97;;;3.33;;
37409;SDS011;23275;48.914;12.566;2024-02-04T09:44:16;43.95;;;20.40;;
37409;SDS011;23275;48.914;12.566;2024-02-04T09:46:42;42.00;;;21.20;;
37409;SDS011;23275;48.914;12.566;2024-02-04T09:49:08;8.07;;;5.75;;
37409;SDS011;23275;48.914;12.566;2024-02-04T09:51:34;4.13;;;2.25;;
37409;SDS011;23275;48.914;12.566;2024-02-04T09:54:02;2.80;;;1.80;;
37409;SDS011;23275;48.914;12.566;2024-02-04T09:56:31;2.38;;;1.30;;
37409;SDS011;23275;48.914;12.566;2024-02-04T09:58:57;3.65;;;1.55;;
37409;SDS011;23275;48.914;12.566;2024-02-04T10:01:23;2.53;;;1.48;;
37409;SDS011;23275;48.914;12.566;2024-02-04T10:03:49;3.35;;;1.48;;
37409;SDS011;23275;48.914;12.566;2024-02-04T10:06:15;2.85;;;1.60;;
37409;SDS011;23275;48.914;12.566;2024-02-04T10:08:41;3.70;;;2.05;;
37409;SDS011;23275;48.914;12.566;2024-02-04T10:11:07;2.97;;;1.67;;
37409;SDS011;23275;48.914;12.566;2024-02-04T10:13:46;2.78;;;1.42;;
37409;SDS011;23275;48.914;12.566;2024-02-04T10:16:13;5.15;;;2.58;;
37409;SDS011;23275;48.914;12.566;2024-02-04T10:18:43;6.88;;;3.75;;
37409;SDS011;23275;48.914;12.566;2024-02-04T10:21:17;4.70;;;2.70;;
37409;SDS011;23275;48.914;12.566;2024-02-04T10:23:43;5.32;;;3.38;;
37409;SDS011;23275;48.914;12.566;2024-02-04T10:26:09;3.63;;;1.80;;
37409;SDS011;23275;48.914;12.566;2024-02-04T10:28:36;6.65;;;3.70;;
37409;SDS011;23275;48.914;12.566;2024-02-04T10:31:02;8.40;;;4.30;;
37409;SDS011;23275;48.914;12.566;2024-02-04T10:33:31;10.98;;;6.00;;
37409;SDS011;23275;48.914;12.566;2024-02-04T10:35:57;7.93;;;4.00;;
37409;SDS011;23275;48.914;12.566;2024-02-04T10:38:22;17.15;;;8.32;;
37409;SDS011;23275;48.914;12.566;2024-02-04T10:40:50;8.02;;;4.25;;
37409;SDS011;23275;48.914;12.566;2024-02-04T10:43:19;12.70;;;5.20;;
37409;SDS011;23275;48.914;12.566;2024-02-04T10:45:46;13.60;;;7.03;;
37409;SDS011;23275;48.914;12.566;2024-02-04T10:48:15;7.32;;;4.25;;
37409;SDS011;23275;48.914;12.566;2024-02-04T10:50:43;9.18;;;4.57;;
37409;SDS011;23275;48.914;12.566;2024-02-04T10:53:12;5.93;;;3.10;;
37409;SDS011;23275;48.914;12.566;2024-02-04T10:55:41;10.30;;;4.90;;
37409;SDS011;23275;48.914;12.566;2024-02-04T10:58:08;5.50;;;2.85;;
37409;SDS011;23275;48.914;12.566;2024-02-04T11:00:37;7.05;;;3.58;;
37409;SDS011;23275;48.914;12.566;2024-02-04T11:03:03;6.20;;;2.53;;
37409;SDS011;23275;48.914;12.566;2024-02-04T11:05:29;3.88;;;1.77;;
37409;SDS011;23275;48.914;12.566;2024-02-04T11:07:56;7.05;;;3.35;;
37409;SDS011;23275;48.914;12.566;2024-02-04T11:10:24;4.07;;;1.25;;
37409;SDS011;23275;48.914;12.566;2024-02-04T11:12:52;3.10;;;1.58;;
37409;SDS011;23275;48.914;12.566;2024-02-04T11:15:20;3.10;;;1.25;;
37409;SDS011;23275;48.914;12.566;2024-02-04T11:21:22;3.63;;;1.38;;
37409;SDS011;23275;48.914;12.566;2024-02-04T11:24:30;7.75;;;3.58;;
37409;SDS011;23275;48.914;12.566;2024-02-04T11:27:12;6.72;;;3.03;;
37409;SDS011;23275;48.914;12.566;2024-02-04T11:29:38;19.05;;;9.35;;
37409;SDS011;23275;48.914;12.566;2024-02-04T11:32:05;12.52;;;7.10;;
37409;SDS011;23275;48.914;12.566;2024-02-04T11:34:31;11.68;;;5.05;;
37409;SDS011;23275;48.914;12.566;2024-02-04T11:36:58;7.20;;;3.95;;
37409;SDS011;23275;48.914;12.566;2024-02-04T11:39:24;4.07;;;1.85;;
37409;SDS011;23275;48.914;12.566;2024-02-04T11:41:50;4.25;;;2.38;;
37409;SDS011;23275;48.914;12.566;2024-02-04T11:44:25;3.78;;;2.30;;
37409;SDS011;23275;48.914;12.566;2024-02-04T11:46:52;3.90;;;1.60;;
37409;SDS011;23275;48.914;12.566;2024-02-04T11:49:20;4.55;;;2.20;;
37409;SDS011;23275;48.914;12.566;2024-02-04T11:51:50;1.92;;;0.90;;
37409;SDS011;23275;48.914;12.566;2024-02-04T11:54:17;4.45;;;2.60;;
37409;SDS011;23275;48.914;12.566;2024-02-04T11:56:49;3.50;;;1.40;;
37409;SDS011;23275;48.914;12.566;2024-02-04T11:59:18;2.22;;;0.95;;
37409;SDS011;23275;48.914;12.566;2024-02-04T12:01:47;2.00;;;0.70;;
37409;SDS011;23275;48.914;12.566;2024-02-04T12:04:13;4.57;;;0.80;;
37409;SDS011;23275;48.914;12.566;2024-02-04T12:06:41;2.28;;;1.00;;
37409;SDS011;23275;48.914;12.566;2024-02-04T12:09:10;2.80;;;1.50;;
37409;SDS011;23275;48.914;12.566;2024-02-04T12:11:36;2.33;;;0.95;;
37409;SDS011;23275;48.914;12.566;2024-02-04T12:14:05;7.65;;;3.60;;
37409;SDS011;23275;48.914;12.566;2024-02-04T12:16:32;8.77;;;5.68;;
37409;SDS011;23275;48.914;12.566;2024-02-04T12:19:00;5.03;;;3.25;;
37409;SDS011;23275;48.914;12.566;2024-02-04T12:21:28;7.07;;;3.45;;
37409;SDS011;23275;48.914;12.566;2024-02-04T12:23:54;7.40;;;4.80;;
37409;SDS011;23275;48.914;12.566;2024-02-04T12:26:20;3.58;;;1.63;;
37409;SDS011;23275;48.914;12.566;2024-02-04T12:28:48;3.08;;;1.75;;
37409;SDS011;23275;48.914;12.566;2024-02-04T12:31:18;1.83;;;0.85;;
37409;SDS011;23275;48.914;12.566;2024-02-04T12:33:54;2.10;;;1.05;;
37409;SDS011;23275;48.914;12.566;2024-02-04T12:36:22;3.97;;;1.25;;
37409;SDS011;23275;48.914;12.566;2024-02-04T12:38:58;2.75;;;1.13;;
37409;SDS011;23275;48.914;12.566;2024-02-04T12:41:28;3.75;;;1.52;;
37409;SDS011;23275;48.914;12.566;2024-02-04T12:43:55;1.90;;;1.05;;
37409;SDS011;23275;48.914;12.566;2024-02-04T12:46:22;2.80;;;1.25;;
37409;SDS011;23275;48.914;12.566;2024-02-04T12:48:51;2.08;;;1.10;;
37409;SDS011;23275;48.914;12.566;2024-02-04T12:51:27;3.80;;;1.70;;
37409;SDS011;23275;48.914;12.566;2024-02-04T12:54:02;4.00;;;1.73;;
37409;SDS011;23275;48.914;12.566;2024-02-04T12:56:48;3.10;;;1.30;;
37409;SDS011;23275;48.914;12.566;2024-02-04T13:01:54;2.60;;;1.27;;
37409;SDS011;23275;48.914;12.566;2024-02-04T13:04:20;2.08;;;1.00;;
37409;SDS011;23275;48.914;12.566;2024-02-04T13:06:47;2.05;;;0.90;;
37409;SDS011;23275;48.914;12.566;2024-02-04T13:09:14;2.30;;;1.13;;
37409;SDS011;23275;48.914;12.566;2024-02-04T13:14:09;1.50;;;0.70;;
37409;SDS011;23275;48.914;12.566;2024-02-04T13:16:35;2.35;;;0.95;;
37409;SDS011;23275;48.914;12.566;2024-02-04T13:19:02;2.85;;;1.13;;
37409;SDS011;23275;48.914;12.566;2024-02-04T13:21:28;1.13;;;0.50;;
37409;SDS011;23275;48.914;12.566;2024-02-04T13:23:53;1.48;;;0.70;;
37409;SDS011;23275;48.914;12.566;2024-02-04T13:26:19;3.80;;;0.80;;
37409;SDS011;23275;48.914;12.566;2024-02-04T13:28:45;1.83;;;1.00;;
37409;SDS011;23275;48.914;12.566;2024-02-04T13:31:11;3.70;;;0.80;;
37409;SDS011;23275;48.914;12.566;2024-02-04T13:33:37;1.58;;;0.70;;
37409;SDS011;23275;48.914;12.566;2024-02-04T13:36:03;1.65;;;0.80;;
37409;SDS011;23275;48.914;12.566;2024-02-04T13:38:29;2.53;;;0.93;;
37409;SDS011;23275;48.914;12.566;2024-02-04T13:40:55;1.92;;;0.73;;
37409;SDS011;23275;48.914;12.566;2024-02-04T13:43:20;2.22;;;0.73;;
37409;SDS011;23275;48.914;12.566;2024-02-04T13:45:46;2.38;;;1.17;;
37409;SDS011;23275;48.914;12.566;2024-02-04T13:48:12;1.58;;;0.70;;
37409;SDS011;23275;48.914;12.566;2024-02-04T13:50:38;2.15;;;1.10;;
37409;SDS011;23275;48.914;12.566;2024-02-04T13:53:03;9.27;;;1.10;;
37409;SDS011;23275;48.914;12.566;2024-02-04T13:55:29;1.90;;;0.77;;
37409;SDS011;23275;48.914;12.566;2024-02-04T13:57:54;2.20;;;0.70;;
37409;SDS011;23275;48.914;12.566;2024-02-04T14:00:20;1.90;;;0.60;;
37409;SDS011;23275;48.914;12.566;2024-02-04T14:02:46;2.75;;;0.70;;
37409;SDS011;23275;48.914;12.566;2024-02-04T14:05:11;1.85;;;0.95;;
37409;SDS011;23275;48.914;12.566;2024-02-04T14:07:37;2.15;;;0.80;;
37409;SDS011;23275;48.914;12.566;2024-02-04T14:10:03;1.38;;;0.85;;
37409;SDS011;23275;48.914;12.566;2024-02-04T14:12:28;1.73;;;0.70;;
37409;SDS011;23275;48.914;12.566;2024-02-04T14:14:54;1.35;;;0.60;;
37409;SDS011;23275;48.914;12.566;2024-02-04T14:17:20;1.73;;;0.65;;
37409;SDS011;23275;48.914;12.566;2024-02-04T14:19:45;1.50;;;0.80;;
37409;SDS011;23275;48.914;12.566;2024-02-04T14:22:14;1.75;;;0.77;;
37409;SDS011;23275;48.914;12.566;2024-02-04T14:24:42;1.45;;;0.70;;
37409;SDS011;23275;48.914;12.566;2024-02-04T14:27:08;1.23;;;0.60;;
37409;SDS011;23275;48.914;12.566;2024-02-04T14:29:33;3.10;;;0.80;;
37409;SDS011;23275;48.914;12.566;2024-02-04T14:31:59;2.15;;;0.90;;
37409;SDS011;23275;48.914;12.566;2024-02-04T14:34:25;2.03;;;1.02;;
37409;SDS011;23275;48.914;12.566;2024-02-04T14:36:52;1.42;;;0.68;;
37409;SDS011;23275;48.914;12.566;2024-02-04T14:39:17;1.25;;;0.80;;
37409;SDS011;23275;48.914;12.566;2024-02-04T14:41:43;2.00;;;0.90;;
37409;SDS011;23275;48.914;12.566;2024-02-04T14:44:08;1.85;;;0.85;;